Westland, Pennsylvania
Current Conditions -  °F | °C
As of 5:15 PM on Monday 20 Oct 2014 (Local Time) from KAFJ Reporting Station
Overcast Overcast  
Wind Chill: 55°   Ceiling: 10000
Heat Index: 55°   Visibility: 10mi
Dew Point: 41°   Wind: 9mph
Humidity: 58%   Direction: 220°SW
Pressure: 29.91"   Gusts: NA
Location:  40.28°N, 80.27°W
Report Text: KAFJ 202115Z AUTO 22008KT 10SM FEW060 BKN100 OVC120 13/05 A2991 RMK AO1
Loading
Personal Weather Stations






























Interactive Weather Map
Tropical Storm Tracking
New forecast layout! Learn more

10-Day Weather Forecast

Advertisements
Track Severe Weather on mobile